Latest Weather Observations for Newman Airport

IDW60801

Issued at 6:02 am WST Friday 27 March 2015 (issued every 30 minutes, with the page automatically refreshed every 10 minutes)

About weather observations | Map of weather stations | Latest weather observations for WA | Other Formats
Station Details ID: 007176 Name: NEWMAN AERO Lat: -23.42 Lon: 119.80 Height: 524.0 m
Data from the previous 72 hours. | See also: Recent months at Newman Airport
Date/Time
WST
Temp
°C
App
Temp
°C
Dew
Point
Rel
Hum
%
Delta-T
°C
Wind Press
QNH
hPa
Press
MSL
hPa
Rain
since 9 am
mm
Dir
 
Spd
km/h
Gust
km/h
Spd
kts
Gust
kts
27/06:00am 21.1 19.3 9.4 47 6.4 S 9 13 5 7 1020.3 1016.5 0.0
27/05:30am 21.6 19.2 8.8 44 6.9 S 11 15 6 8 1020.4 1016.6 0.0
27/05:00am 22.2 19.6 9.4 44 7.0 S 13 20 7 11 1020.3 1016.5 0.0
27/04:30am 22.3 20.0 10.5 47 6.6 S 13 20 7 11 1019.9 1016.1 0.0
27/04:00am 22.6 19.9 10.4 46 6.8 S 15 20 8 11 1020.0 1016.2 0.0
27/03:30am 22.6 20.4 10.7 47 6.7 S 13 19 7 10 1019.9 1016.1 0.0
27/03:00am 22.6 20.6 11.4 49 6.4 S 13 19 7 10 1020.0 1016.2 0.0
27/02:30am 22.6 20.5 11.0 48 6.6 SSW 13 17 7 9 1020.2 1016.4 0.0
27/02:00am 22.9 20.3 10.7 46 6.9 SSW 15 22 8 12 1020.4 1016.6 0.0
27/01:30am 22.9 20.8 11.3 48 6.6 SW 13 15 7 8 1020.6 1016.8 0.0
27/01:00am 23.7 21.6 11.1 45 7.2 SSW 13 19 7 10 1020.8 1017.0 0.0
27/12:30am 24.1 21.7 11.4 45 7.3 SSW 15 20 8 11 1020.9 1017.1 0.0
27/12:00am 24.3 21.7 11.9 45 7.2 SW 17 20 9 11 1020.9 1017.1 0.0
 
Date/Time
WST
Temp
°C
App
Temp
°C
Dew
Point
Rel
Hum
%
Delta-T
°C
Wind Press
QNH
hPa
Press
MSL
hPa
Rain
since 9 am
mm
Dir
 
Spd
km/h
Gust
km/h
Spd
kts
Gust
kts
26/11:30pm 24.5 21.9 12.1 46 7.2 SW 17 20 9 11 1021.1 1017.3 0.0
26/11:00pm 24.6 22.4 12.2 46 7.2 SW 15 20 8 11 1021.2 1017.5 0.0
26/10:30pm 24.7 22.6 12.3 46 7.3 SW 15 20 8 11 1021.3 1017.6 0.0
26/10:00pm 25.0 23.0 12.6 46 7.3 SSW 15 19 8 10 1021.2 1017.5 0.0
26/09:30pm 25.0 23.0 12.6 46 7.3 SSW 15 20 8 11 1021.0 1017.2 0.0
26/09:00pm 25.4 22.4 12.6 45 7.5 SSW 20 26 11 14 1020.9 1017.1 0.0
26/08:30pm 26.3 23.2 11.6 40 8.6 S 19 26 10 14 1020.6 1016.8 0.0
26/08:00pm 26.5 23.8 11.8 40 8.6 SSW 17 22 9 12 1020.2 1016.4 0.0
26/07:30pm 27.0 24.4 11.9 39 8.9 S 17 26 9 14 1019.6 1015.8 0.0
26/07:00pm 28.6 25.9 10.3 32 10.5 SSE 15 19 8 10 1019.2 1015.4 0.0
26/06:30pm 29.4 26.6 10.0 30 11.2 SSE 15 20 8 11 1019.0 1015.2 0.0
26/06:00pm 30.1 26.8 9.6 28 11.8 SSE 17 28 9 15 1018.5 1014.7 0.0
26/05:30pm 31.0 27.5 8.7 25 12.7 SSE 17 20 9 11 1018.3 1014.5 0.0
26/05:00pm 31.5 28.3 8.5 24 13.1 SSE 15 22 8 12 1018.2 1014.4 0.0
26/04:30pm 31.8 29.0 8.7 24 13.2 SE 13 22 7 12 1018.0 1014.2 0.0
26/04:00pm 32.2 28.8 9.1 24 13.3 SE 17 22 9 12 1018.0 1014.2 0.0
26/03:30pm 32.0 29.1 8.3 23 13.5 SE 13 20 7 11 1017.9 1014.1 0.0
26/03:00pm 31.4 28.7 9.0 25 12.8 SE 13 17 7 9 1018.1 1014.3 0.0
26/02:30pm 31.7 29.3 8.7 24 13.1 ESE 11 17 6 9 1018.2 1014.4 0.0
26/02:00pm 30.7 28.1 7.8 24 12.8 ENE 11 19 6 10 1018.2 1014.4 0.0
26/01:30pm 30.9 28.0 8.0 24 12.9 NE 13 19 7 10 1018.4 1014.6 0.0
26/01:00pm 30.7 27.5 8.4 25 12.6 E 15 26 8 14 1018.7 1014.9 0.0
26/12:30pm 30.9 28.0 8.0 24 12.9 ENE 13 20 7 11 1019.1 1015.3 0.0
26/12:00pm 29.5 25.8 8.0 26 12.0 E 17 24 9 13 1019.7 1015.9 0.0
26/11:30am 28.6 24.9 7.8 27 11.5 E 17 28 9 15 1020.3 1016.5 0.0
26/11:00am 27.8 23.6 7.6 28 11.1 E 19 28 10 15 1020.7 1016.9 0.0
26/10:30am 27.2 22.9 7.1 28 10.9 E 19 26 10 14 1021.2 1017.5 0.0
26/10:00am 26.5 22.3 7.5 30 10.3 ESE 19 30 10 16 1021.8 1018.0 0.0
26/09:30am 26.1 21.3 7.2 30 10.2 E 22 32 12 17 1021.8 1018.0 0.0
26/09:00am 25.5 19.9 7.1 31 9.9 ESE 26 37 14 20 1022.0 1018.2 0.0
26/08:30am 24.9 19.6 6.6 31 9.7 ESE 24 35 13 19 1022.0 1018.2 0.0
26/08:00am 24.0 19.6 7.2 34 9.0 ESE 20 28 11 15 1021.9 1018.1 0.0
26/07:30am 22.5 20.4 8.2 40 7.7 ESE 9 17 5 9 1021.5 1017.7 0.0
26/07:00am 21.4 19.7 8.3 43 7.0 ESE 7 13 4 7 1021.3 1017.6 0.0
26/06:30am 21.2 19.2 8.5 44 6.8 ESE 9 13 5 7 1021.0 1017.2 0.0
26/06:00am 21.5 18.6 8.1 42 7.2 ESE 13 19 7 10 1020.7 1016.9 0.0
26/05:30am 21.8 19.4 8.7 43 7.1 SSE 11 20 6 11 1020.5 1016.7 0.0
26/05:00am 22.3 20.3 8.8 42 7.3 SE 9 13 5 7 1020.3 1016.5 0.0
26/04:30am 22.7 20.0 8.8 41 7.6 ESE 13 19 7 10 1019.8 1016.0 0.0
26/04:00am 22.9 19.8 9.0 41 7.6 SE 15 22 8 12 1019.7 1015.9 0.0
26/03:30am 23.2 20.9 8.9 40 7.9 SSE 11 13 6 7 1019.8 1016.0 0.0
26/03:00am 23.6 21.0 9.2 40 7.9 SE 13 17 7 9 1019.6 1015.8 0.0
26/02:30am 23.9 21.7 9.5 40 8.0 SE 11 15 6 8 1019.7 1015.9 0.0
26/02:00am 24.3 21.6 9.1 38 8.4 SE 13 20 7 11 1019.6 1015.8 0.0
26/01:30am 24.5 22.1 10.0 40 8.2 SE 13 19 7 10 1019.5 1015.7 0.0
26/01:00am 25.0 21.8 10.1 39 8.4 ESE 17 24 9 13 1019.5 1015.7 0.0
26/12:30am 25.3 22.6 10.4 39 8.5 ESE 15 22 8 12 1019.2 1015.4 0.0
26/12:00am 25.5 23.0 10.9 40 8.4 ESE 15 20 8 11 1019.5 1015.7 0.0
 
Date/Time
WST
Temp
°C
App
Temp
°C
Dew
Point
Rel
Hum
%
Delta-T
°C
Wind Press
QNH
hPa
Press
MSL
hPa
Rain
since 9 am
mm
Dir
 
Spd
km/h
Gust
km/h
Spd
kts
Gust
kts
25/11:30pm 25.8 23.2 10.8 39 8.6 ESE 15 22 8 12 1019.3 1015.5 0.0
25/11:00pm 25.8 23.5 11.6 41 8.3 ESE 15 24 8 13 1019.1 1015.3 0.0
25/10:30pm 25.5 23.3 12.0 43 7.9 ESE 15 20 8 11 1018.9 1015.1 0.0
25/10:00pm 25.5 24.5 12.4 44 7.7 ESE 9 13 5 7 1018.8 1015.0 0.0
25/09:30pm 25.9 25.4 12.7 44 7.8 ESE 7 13 4 7 1018.7 1014.9 0.0
25/09:00pm 26.3 25.6 13.1 44 7.9 ESE 9 11 5 6 1018.8 1015.0 0.0
25/08:30pm 26.3 25.7 13.4 45 7.8 SE 9 11 5 6 1018.7 1014.9 0.0
25/08:00pm 26.8 26.7 13.9 45 7.8 SE 7 13 4 7 1018.7 1014.9 0.0
25/07:30pm 27.2 26.8 14.2 44 7.9 SSE 9 11 5 6 1018.3 1014.5 0.0
25/07:00pm 27.7 27.6 14.0 43 8.3 SE 7 11 4 6 1017.7 1013.9 0.0
25/06:30pm 28.7 28.1 12.2 36 9.8 ESE 7 11 4 6 1017.2 1013.4 0.0
25/06:00pm 29.4 27.6 11.0 32 10.8 E 11 17 6 9 1016.7 1012.9 0.0
25/05:30pm 30.0 27.9 11.0 31 11.2 ESE 13 17 7 9 1016.8 1013.0 0.0
25/05:00pm 30.6 28.6 11.5 30 11.3 E 13 20 7 11 1016.7 1012.9 0.0
25/04:30pm 30.9 27.9 10.8 29 11.8 E 17 22 9 12 1016.7 1012.9 0.0
25/04:00pm 30.7 28.6 11.1 30 11.6 E 13 24 7 13 1016.7 1012.9 0.0
25/03:30pm 30.3 27.6 10.3 29 11.6 ESE 15 24 8 13 1016.8 1013.0 0.0
25/03:00pm 30.2 28.3 11.7 32 11.0 E 13 20 7 11 1016.7 1012.9 0.0
25/02:30pm 30.0 27.6 11.5 32 11.0 ESE 15 24 8 13 1016.9 1013.1 0.0
25/02:00pm 29.5 27.1 11.5 33 10.6 SE 15 22 8 12 1017.2 1013.4 0.0
25/01:30pm 29.2 26.9 11.7 34 10.4 ESE 15 24 8 13 1017.7 1013.9 0.0
25/01:00pm 28.5 26.8 12.4 37 9.6 E 13 26 7 14 1018.1 1014.3 0.0
25/12:30pm 27.9 25.4 12.3 38 9.3 E 17 24 9 13 1018.3 1014.5 0.0
25/12:00pm 27.5 25.0 12.3 39 9.0 ENE 17 28 9 15 1018.7 1014.9 0.0
25/11:30am 26.8 24.4 12.8 42 8.3 ESE 17 28 9 15 1018.8 1015.0 0.0
25/11:00am 26.0 23.2 12.5 43 8.0 ENE 19 24 10 13 1019.2 1015.4 0.0
25/10:30am 25.1 22.5 12.0 44 7.7 ENE 17 24 9 13 1019.8 1016.0 0.0
25/10:00am 23.6 20.6 12.0 48 6.7 ENE 19 22 10 12 1020.0 1016.2 0.0
25/09:30am 23.3 20.9 12.6 51 6.3 E 17 22 9 12 1020.1 1016.3 0.0
25/09:00am 22.8 20.4 12.7 53 5.9 ESE 17 22 9 12 1020.1 1016.3 6.4
25/08:30am 21.4 18.8 12.0 55 5.4 E 17 26 9 14 1020.1 1016.3 6.4
25/08:00am 20.7 19.5 12.7 60 4.6 ESE 11 17 6 9 1020.0 1016.2 6.4
25/07:30am 19.9 18.7 12.7 63 4.2 SE 11 15 6 8 1019.7 1015.9 6.4
25/07:00am 19.6 18.9 13.1 66 3.8 SE 9 13 5 7 1019.5 1015.7 6.4
25/06:30am 19.5 19.4 13.2 67 3.7 E 6 9 3 5 1019.2 1015.4 6.4
25/06:00am 19.6 19.3 12.8 65 3.9 ENE 6 9 3 5 1019.0 1015.2 6.4
25/05:30am 19.7 18.5 12.7 64 4.0 ENE 11 17 6 9 1018.7 1014.9 6.4
25/05:00am 19.8 19.0 13.0 65 3.9 ENE 9 13 5 7 1018.8 1015.0 6.4
25/04:30am 19.9 19.1 12.9 64 4.1 E 9 15 5 8 1018.6 1014.8 6.4
25/04:00am 19.8 19.2 13.5 67 3.7 ENE 9 13 5 7 1018.7 1014.9 6.4
25/03:30am 19.8 19.3 13.7 68 3.6 ENE 9 13 5 7 1018.7 1014.9 6.4
25/03:00am 19.9 19.2 14.3 70 3.3 SE 11 17 6 9 1019.0 1015.2 6.4
25/02:30am 19.7 18.0 14.7 73 3.0 SSE 17 22 9 12 1019.2 1015.4 6.4
25/02:00am 19.5 17.6 14.3 72 3.1 SSE 17 20 9 11 1019.6 1015.8 6.4
25/01:30am 19.6 18.5 14.4 72 3.1 S 13 17 7 9 1020.1 1016.3 6.0
25/01:00am 20.3 19.9 14.2 68 3.6 SSE 9 13 5 7 1020.0 1016.2 5.8
25/12:30am 19.9 19.8 14.9 73 3.0 S 9 11 5 6 1019.9 1016.1 5.8
25/12:00am 20.4 20.6 14.7 70 3.4 SSE 7 11 4 6 1020.0 1016.2 5.6
 
Date/Time
WST
Temp
°C
App
Temp
°C
Dew
Point
Rel
Hum
%
Delta-T
°C
Wind Press
QNH
hPa
Press
MSL
hPa
Rain
since 9 am
mm
Dir
 
Spd
km/h
Gust
km/h
Spd
kts
Gust
kts
24/11:30pm 20.5 21.5 14.2 67 3.7 NE 2 9 1 5 1019.8 1016.0 5.4
24/11:00pm 20.3 19.2 14.4 69 3.5 ESE 13 19 7 10 1018.9 1015.1 5.4
24/10:30pm 19.9 17.7 14.9 73 3.0 SE 20 28 11 15 1018.9 1015.1 5.4
24/10:00pm 19.6 16.6 14.8 74 2.9 SE 24 39 13 21 1019.5 1015.7 5.4
24/09:56pm 19.6 17.0 15.0 75 2.8 SSE 22 35 12 19 1019.6 1015.8 5.2
24/09:30pm 19.8 16.2 15.2 75 2.8 SW 28 39 15 21 1021.6 1017.8 4.0
24/09:21pm 20.0 16.5 15.4 75 2.8 SW 28 46 15 25 1021.6 1017.8 3.4
24/09:16pm 20.0 15.9 15.0 73 3.0 WSW 30 46 16 25 1021.6 1017.8 3.0
24/09:00pm 21.7 19.9 16.0 70 3.5 WSW 20 28 11 15 1020.8 1017.0 1.2
24/08:51pm 21.9 19.5 15.3 66 4.0 SW 22 30 12 16 1020.1 1016.3 0.8
24/08:30pm 25.4 24.6 13.9 49 6.9 S 11 17 6 9 1018.1 1014.3 0.0
24/08:00pm 26.7 25.4 12.4 41 8.5 SE 11 13 6 7 1016.5 1012.7 0.0
24/07:30pm 26.8 25.5 12.4 40 8.5 SE 11 15 6 8 1016.5 1012.7 0.0
24/07:00pm 27.0 25.6 12.3 40 8.7 SE 11 13 6 7 1016.1 1012.3 0.0
24/06:30pm 27.6 26.0 11.6 37 9.4 SSE 11 13 6 7 1015.8 1011.9 0.0
24/06:00pm 28.5 26.4 11.1 34 10.2 SE 13 17 7 9 1014.9 1011.1 0.0
24/05:30pm 29.2 26.2 10.8 32 10.7 SE 17 20 9 11 1015.2 1011.4 0.0
24/05:00pm 30.1 28.0 11.1 31 11.2 ENE 13 19 7 10 1015.4 1011.5 0.0
24/04:30pm 30.0 28.2 11.0 31 11.2 NE 11 17 6 9 1015.4 1011.5 0.0
24/04:00pm 30.7 28.6 11.1 30 11.6 NE 13 19 7 10 1015.4 1011.5 0.0
24/03:30pm 29.9 27.2 10.5 30 11.3 NE 15 24 8 13 1015.2 1011.4 0.0
24/03:00pm 30.0 27.5 11.0 31 11.2 NE 15 26 8 14 1015.5 1011.6 0.0
24/02:30pm 29.2 27.1 11.3 33 10.5 NE 13 20 7 11 1015.7 1011.8 0.0
24/02:00pm 29.6 27.0 12.1 34 10.4 E 17 28 9 15 1015.9 1012.0 0.0
24/01:30pm 28.2 25.9 11.7 36 9.7 E 15 24 8 13 1016.4 1012.6 0.0
24/01:00pm 27.4 24.6 11.4 37 9.3 ESE 17 24 9 13 1016.8 1013.0 0.0
24/12:30pm 27.1 24.9 12.0 39 8.9 SSE 15 20 8 11 1017.6 1013.7 0.0
24/12:00pm 25.2 22.2 12.1 44 7.7 SSE 19 26 10 14 1018.4 1014.6 0.0
24/11:30am 25.9 23.6 11.6 40 8.3 SSE 15 20 8 11 1018.7 1014.9 0.0
24/11:00am 26.3 24.3 11.6 40 8.6 S 13 17 7 9 1019.1 1015.3 0.0
24/10:30am 25.6 23.6 11.4 41 8.2 E 13 17 7 9 1018.5 1014.7 0.0
24/10:00am 24.8 21.9 11.0 42 7.9 ESE 17 26 9 14 1018.3 1014.5 0.0
24/09:30am 23.3 20.1 11.4 47 6.8 SE 19 24 10 13 1018.7 1014.9 0.0
24/09:00am 22.9 20.2 11.6 49 6.5 ESE 17 26 9 14 1018.8 1015.0 6.2
24/08:30am 22.1 19.0 11.5 51 6.1 SE 19 28 10 15 1018.9 1015.1 6.2
24/08:00am 21.0 18.8 12.2 57 5.1 ESE 15 20 8 11 1018.8 1015.0 6.2
24/07:30am 20.1 19.6 13.8 67 3.7 SE 9 13 5 7 1018.9 1015.1 6.2
24/07:00am 20.0 19.8 13.7 67 3.7 SSE 7 9 4 5 1018.6 1014.8 6.2
24/06:30am 19.7 19.1 13.4 67 3.7 SE 9 13 5 7 1018.3 1014.5 6.2

Other Formats:

Comma delimited format used in spreadsheet applications
http://www.bom.gov.au/fwo/IDW60801/IDW60801.94317.axf

JavaScript Object Notation format (JSON) in row-major order
http://www.bom.gov.au/fwo/IDW60801/IDW60801.94317.json